sensor_id;sensor_type;location;lat;lon;timestamp;P1;durP1;ratioP1;P2;durP2;ratioP2
20970;SDS011;10644;48.834;10.088;2023-03-12T00:01:31;17.70;;;9.20;;
20970;SDS011;10644;48.834;10.088;2023-03-12T00:04:11;20.48;;;10.35;;
20970;SDS011;10644;48.834;10.088;2023-03-12T00:06:37;18.85;;;9.32;;
20970;SDS011;10644;48.834;10.088;2023-03-12T00:09:07;18.13;;;9.97;;
20970;SDS011;10644;48.834;10.088;2023-03-12T00:14:04;17.50;;;9.00;;
20970;SDS011;10644;48.834;10.088;2023-03-12T00:16:29;13.15;;;7.35;;
20970;SDS011;10644;48.834;10.088;2023-03-12T00:18:56;14.63;;;6.70;;
20970;SDS011;10644;48.834;10.088;2023-03-12T00:21:23;13.65;;;7.20;;
20970;SDS011;10644;48.834;10.088;2023-03-12T00:23:49;10.97;;;7.97;;
20970;SDS011;10644;48.834;10.088;2023-03-12T00:26:18;13.88;;;8.25;;
20970;SDS011;10644;48.834;10.088;2023-03-12T00:28:47;7.90;;;5.10;;
20970;SDS011;10644;48.834;10.088;2023-03-12T00:33:48;23.20;;;14.35;;
20970;SDS011;10644;48.834;10.088;2023-03-12T00:36:16;11.40;;;6.30;;
20970;SDS011;10644;48.834;10.088;2023-03-12T00:38:43;13.25;;;6.53;;
20970;SDS011;10644;48.834;10.088;2023-03-12T00:41:09;15.23;;;6.60;;
20970;SDS011;10644;48.834;10.088;2023-03-12T00:43:36;12.02;;;6.28;;
20970;SDS011;10644;48.834;10.088;2023-03-12T00:46:06;20.27;;;10.13;;
20970;SDS011;10644;48.834;10.088;2023-03-12T00:48:31;11.23;;;5.88;;
20970;SDS011;10644;48.834;10.088;2023-03-12T00:51:01;12.00;;;5.90;;
20970;SDS011;10644;48.834;10.088;2023-03-12T00:56:12;10.98;;;5.97;;
20970;SDS011;10644;48.834;10.088;2023-03-12T00:58:41;12.63;;;6.50;;
20970;SDS011;10644;48.834;10.088;2023-03-12T01:01:15;21.50;;;11.10;;
20970;SDS011;10644;48.834;10.088;2023-03-12T01:03:49;11.27;;;6.78;;
20970;SDS011;10644;48.834;10.088;2023-03-12T01:06:26;32.00;;;17.80;;
20970;SDS011;10644;48.834;10.088;2023-03-12T01:08:53;25.05;;;16.20;;
20970;SDS011;10644;48.834;10.088;2023-03-12T01:11:31;14.90;;;8.90;;
20970;SDS011;10644;48.834;10.088;2023-03-12T01:13:57;12.93;;;8.00;;
20970;SDS011;10644;48.834;10.088;2023-03-12T01:16:26;20.70;;;12.25;;
20970;SDS011;10644;48.834;10.088;2023-03-12T01:18:55;27.65;;;14.60;;
20970;SDS011;10644;48.834;10.088;2023-03-12T01:21:27;18.60;;;9.93;;
20970;SDS011;10644;48.834;10.088;2023-03-12T01:23:57;15.93;;;8.30;;
20970;SDS011;10644;48.834;10.088;2023-03-12T01:26:22;37.25;;;21.02;;
20970;SDS011;10644;48.834;10.088;2023-03-12T01:28:53;37.80;;;19.27;;
20970;SDS011;10644;48.834;10.088;2023-03-12T01:34:04;20.08;;;8.38;;
20970;SDS011;10644;48.834;10.088;2023-03-12T01:36:29;26.17;;;9.35;;
20970;SDS011;10644;48.834;10.088;2023-03-12T01:38:57;15.35;;;9.10;;
20970;SDS011;10644;48.834;10.088;2023-03-12T01:41:38;21.80;;;12.60;;
20970;SDS011;10644;48.834;10.088;2023-03-12T01:44:12;18.98;;;9.15;;
20970;SDS011;10644;48.834;10.088;2023-03-12T01:46:39;22.52;;;12.43;;
20970;SDS011;10644;48.834;10.088;2023-03-12T01:49:28;18.40;;;10.40;;
20970;SDS011;10644;48.834;10.088;2023-03-12T01:52:06;22.67;;;13.25;;
20970;SDS011;10644;48.834;10.088;2023-03-12T01:54:40;12.23;;;6.50;;
20970;SDS011;10644;48.834;10.088;2023-03-12T02:02:59;12.25;;;5.68;;
20970;SDS011;10644;48.834;10.088;2023-03-12T02:05:32;15.52;;;10.90;;
20970;SDS011;10644;48.834;10.088;2023-03-12T02:08:06;11.38;;;6.40;;
20970;SDS011;10644;48.834;10.088;2023-03-12T02:10:32;10.00;;;6.32;;
20970;SDS011;10644;48.834;10.088;2023-03-12T02:13:04;10.57;;;6.20;;
20970;SDS011;10644;48.834;10.088;2023-03-12T02:15:31;9.35;;;5.28;;
20970;SDS011;10644;48.834;10.088;2023-03-12T02:17:58;7.63;;;5.30;;
20970;SDS011;10644;48.834;10.088;2023-03-12T02:26:37;11.45;;;4.85;;
20970;SDS011;10644;48.834;10.088;2023-03-12T02:29:05;10.30;;;5.72;;
20970;SDS011;10644;48.834;10.088;2023-03-12T02:34:28;9.65;;;4.45;;
20970;SDS011;10644;48.834;10.088;2023-03-12T02:37:01;9.05;;;4.85;;
20970;SDS011;10644;48.834;10.088;2023-03-12T02:39:27;10.80;;;4.88;;
20970;SDS011;10644;48.834;10.088;2023-03-12T02:42:11;12.90;;;5.45;;
20970;SDS011;10644;48.834;10.088;2023-03-12T02:44:38;12.27;;;4.90;;
20970;SDS011;10644;48.834;10.088;2023-03-12T02:47:11;7.53;;;4.35;;
20970;SDS011;10644;48.834;10.088;2023-03-12T02:49:38;7.53;;;4.70;;
20970;SDS011;10644;48.834;10.088;2023-03-12T02:54:53;7.95;;;4.70;;
20970;SDS011;10644;48.834;10.088;2023-03-12T02:57:19;6.43;;;5.10;;
20970;SDS011;10644;48.834;10.088;2023-03-12T03:00:00;7.43;;;4.60;;
20970;SDS011;10644;48.834;10.088;2023-03-12T03:02:26;10.23;;;4.70;;
20970;SDS011;10644;48.834;10.088;2023-03-12T03:04:51;8.33;;;5.00;;
20970;SDS011;10644;48.834;10.088;2023-03-12T03:07:17;8.70;;;5.17;;
20970;SDS011;10644;48.834;10.088;2023-03-12T03:12:10;11.70;;;6.05;;
20970;SDS011;10644;48.834;10.088;2023-03-12T03:14:38;7.30;;;5.30;;
20970;SDS011;10644;48.834;10.088;2023-03-12T03:17:04;6.95;;;5.13;;
20970;SDS011;10644;48.834;10.088;2023-03-12T03:19:36;8.00;;;5.10;;
20970;SDS011;10644;48.834;10.088;2023-03-12T03:24:39;11.18;;;4.93;;
20970;SDS011;10644;48.834;10.088;2023-03-12T03:27:18;8.52;;;5.18;;
20970;SDS011;10644;48.834;10.088;2023-03-12T03:35:05;7.57;;;4.28;;
20970;SDS011;10644;48.834;10.088;2023-03-12T03:37:32;9.63;;;5.20;;
20970;SDS011;10644;48.834;10.088;2023-03-12T03:39:57;7.70;;;5.00;;
20970;SDS011;10644;48.834;10.088;2023-03-12T03:45:15;7.50;;;5.10;;
20970;SDS011;10644;48.834;10.088;2023-03-12T03:47:44;7.35;;;4.22;;
20970;SDS011;10644;48.834;10.088;2023-03-12T03:50:12;16.45;;;4.68;;
20970;SDS011;10644;48.834;10.088;2023-03-12T03:52:52;10.35;;;5.10;;
20970;SDS011;10644;48.834;10.088;2023-03-12T03:55:29;7.07;;;4.65;;
20970;SDS011;10644;48.834;10.088;2023-03-12T03:57:56;6.35;;;4.50;;
20970;SDS011;10644;48.834;10.088;2023-03-12T04:00:23;5.63;;;3.88;;
20970;SDS011;10644;48.834;10.088;2023-03-12T04:02:55;9.75;;;4.53;;
20970;SDS011;10644;48.834;10.088;2023-03-12T04:05:23;6.25;;;4.70;;
20970;SDS011;10644;48.834;10.088;2023-03-12T04:08:02;6.45;;;4.72;;
20970;SDS011;10644;48.834;10.088;2023-03-12T04:10:30;6.38;;;4.40;;
20970;SDS011;10644;48.834;10.088;2023-03-12T04:13:01;7.00;;;5.07;;
20970;SDS011;10644;48.834;10.088;2023-03-12T04:15:28;6.73;;;4.40;;
20970;SDS011;10644;48.834;10.088;2023-03-12T04:17:54;4.70;;;4.03;;
20970;SDS011;10644;48.834;10.088;2023-03-12T04:20:20;11.00;;;5.00;;
20970;SDS011;10644;48.834;10.088;2023-03-12T04:22:49;10.23;;;4.47;;
20970;SDS011;10644;48.834;10.088;2023-03-12T04:25:14;17.03;;;4.13;;
20970;SDS011;10644;48.834;10.088;2023-03-12T04:27:57;16.80;;;7.70;;
20970;SDS011;10644;48.834;10.088;2023-03-12T04:32:58;6.35;;;3.97;;
20970;SDS011;10644;48.834;10.088;2023-03-12T04:35:23;9.18;;;4.20;;
20970;SDS011;10644;48.834;10.088;2023-03-12T04:37:49;5.67;;;4.10;;
20970;SDS011;10644;48.834;10.088;2023-03-12T04:40:15;9.85;;;4.88;;
20970;SDS011;10644;48.834;10.088;2023-03-12T04:45:55;8.50;;;3.67;;
20970;SDS011;10644;48.834;10.088;2023-03-12T04:48:21;9.70;;;4.00;;
20970;SDS011;10644;48.834;10.088;2023-03-12T04:50:56;6.78;;;3.47;;
20970;SDS011;10644;48.834;10.088;2023-03-12T04:53:24;5.53;;;3.97;;
20970;SDS011;10644;48.834;10.088;2023-03-12T04:55:49;4.18;;;3.40;;
20970;SDS011;10644;48.834;10.088;2023-03-12T05:06:02;5.85;;;3.70;;
20970;SDS011;10644;48.834;10.088;2023-03-12T05:08:34;7.63;;;3.80;;
20970;SDS011;10644;48.834;10.088;2023-03-12T05:11:02;5.05;;;3.50;;
20970;SDS011;10644;48.834;10.088;2023-03-12T05:13:28;8.65;;;3.78;;
20970;SDS011;10644;48.834;10.088;2023-03-12T05:16:02;5.63;;;4.03;;
20970;SDS011;10644;48.834;10.088;2023-03-12T05:18:37;10.68;;;3.72;;
20970;SDS011;10644;48.834;10.088;2023-03-12T05:23:48;5.65;;;3.65;;
20970;SDS011;10644;48.834;10.088;2023-03-12T05:26:23;6.33;;;3.90;;
20970;SDS011;10644;48.834;10.088;2023-03-12T05:28:56;5.90;;;3.55;;
20970;SDS011;10644;48.834;10.088;2023-03-12T05:31:24;3.90;;;3.47;;
20970;SDS011;10644;48.834;10.088;2023-03-12T05:33:53;4.47;;;3.63;;
20970;SDS011;10644;48.834;10.088;2023-03-12T05:36:20;7.07;;;4.03;;
20970;SDS011;10644;48.834;10.088;2023-03-12T05:38:50;5.90;;;3.50;;
20970;SDS011;10644;48.834;10.088;2023-03-12T05:41:25;7.93;;;4.30;;
20970;SDS011;10644;48.834;10.088;2023-03-12T05:44:18;5.90;;;4.03;;
20970;SDS011;10644;48.834;10.088;2023-03-12T05:46:44;4.90;;;3.60;;
20970;SDS011;10644;48.834;10.088;2023-03-12T05:49:14;5.07;;;3.93;;
20970;SDS011;10644;48.834;10.088;2023-03-12T05:51:41;5.95;;;3.70;;
20970;SDS011;10644;48.834;10.088;2023-03-12T05:54:15;6.70;;;3.30;;
20970;SDS011;10644;48.834;10.088;2023-03-12T05:56:41;6.88;;;3.83;;
20970;SDS011;10644;48.834;10.088;2023-03-12T05:59:24;6.40;;;4.00;;
20970;SDS011;10644;48.834;10.088;2023-03-12T06:04:33;13.18;;;4.05;;
20970;SDS011;10644;48.834;10.088;2023-03-12T06:07:14;4.20;;;3.45;;
20970;SDS011;10644;48.834;10.088;2023-03-12T06:09:39;6.10;;;3.53;;
20970;SDS011;10644;48.834;10.088;2023-03-12T06:12:06;9.10;;;4.10;;
20970;SDS011;10644;48.834;10.088;2023-03-12T06:14:42;10.98;;;4.68;;
20970;SDS011;10644;48.834;10.088;2023-03-12T06:17:14;6.97;;;3.92;;
20970;SDS011;10644;48.834;10.088;2023-03-12T06:22:30;6.60;;;4.35;;
20970;SDS011;10644;48.834;10.088;2023-03-12T06:24:57;8.50;;;4.93;;
20970;SDS011;10644;48.834;10.088;2023-03-12T06:27:29;7.47;;;4.70;;
20970;SDS011;10644;48.834;10.088;2023-03-12T06:30:06;5.35;;;4.50;;
20970;SDS011;10644;48.834;10.088;2023-03-12T06:32:33;7.90;;;4.47;;
20970;SDS011;10644;48.834;10.088;2023-03-12T06:35:04;6.80;;;3.58;;
20970;SDS011;10644;48.834;10.088;2023-03-12T06:40:35;5.30;;;3.50;;
20970;SDS011;10644;48.834;10.088;2023-03-12T06:43:09;5.15;;;3.50;;
20970;SDS011;10644;48.834;10.088;2023-03-12T06:45:48;10.80;;;3.92;;
20970;SDS011;10644;48.834;10.088;2023-03-12T06:48:21;6.30;;;4.57;;
20970;SDS011;10644;48.834;10.088;2023-03-12T06:53:20;6.85;;;4.65;;
20970;SDS011;10644;48.834;10.088;2023-03-12T06:55:48;7.60;;;4.40;;
20970;SDS011;10644;48.834;10.088;2023-03-12T06:58:16;9.18;;;4.47;;
20970;SDS011;10644;48.834;10.088;2023-03-12T07:03:15;16.13;;;5.43;;
20970;SDS011;10644;48.834;10.088;2023-03-12T07:05:50;7.90;;;4.57;;
20970;SDS011;10644;48.834;10.088;2023-03-12T07:08:34;8.35;;;4.63;;
20970;SDS011;10644;48.834;10.088;2023-03-12T07:11:05;5.80;;;4.15;;
20970;SDS011;10644;48.834;10.088;2023-03-12T07:16:27;6.43;;;3.90;;
20970;SDS011;10644;48.834;10.088;2023-03-12T07:18:52;7.30;;;4.00;;
20970;SDS011;10644;48.834;10.088;2023-03-12T07:21:17;6.90;;;4.20;;
20970;SDS011;10644;48.834;10.088;2023-03-12T07:23:57;7.60;;;5.45;;
20970;SDS011;10644;48.834;10.088;2023-03-12T07:26:29;6.50;;;5.07;;
20970;SDS011;10644;48.834;10.088;2023-03-12T07:29:10;10.05;;;5.75;;
20970;SDS011;10644;48.834;10.088;2023-03-12T07:34:32;10.80;;;6.55;;
20970;SDS011;10644;48.834;10.088;2023-03-12T07:40:06;16.05;;;7.88;;
20970;SDS011;10644;48.834;10.088;2023-03-12T07:42:32;9.48;;;6.15;;
20970;SDS011;10644;48.834;10.088;2023-03-12T07:45:27;8.10;;;5.85;;
20970;SDS011;10644;48.834;10.088;2023-03-12T07:47:54;10.60;;;5.60;;
20970;SDS011;10644;48.834;10.088;2023-03-12T07:53:28;8.90;;;5.55;;
20970;SDS011;10644;48.834;10.088;2023-03-12T07:55:55;11.43;;;6.47;;
20970;SDS011;10644;48.834;10.088;2023-03-12T07:58:28;10.65;;;6.15;;
20970;SDS011;10644;48.834;10.088;2023-03-12T08:01:00;12.02;;;6.60;;
20970;SDS011;10644;48.834;10.088;2023-03-12T08:03:33;10.77;;;5.78;;
20970;SDS011;10644;48.834;10.088;2023-03-12T08:05:59;10.40;;;6.75;;
20970;SDS011;10644;48.834;10.088;2023-03-12T08:08:33;11.73;;;6.22;;
20970;SDS011;10644;48.834;10.088;2023-03-12T08:13:29;11.98;;;6.10;;
20970;SDS011;10644;48.834;10.088;2023-03-12T08:18:49;10.43;;;6.30;;
20970;SDS011;10644;48.834;10.088;2023-03-12T08:21:17;10.95;;;6.47;;
20970;SDS011;10644;48.834;10.088;2023-03-12T08:23:42;13.20;;;6.10;;
20970;SDS011;10644;48.834;10.088;2023-03-12T08:26:08;8.73;;;5.40;;
20970;SDS011;10644;48.834;10.088;2023-03-12T08:28:42;9.73;;;6.30;;
20970;SDS011;10644;48.834;10.088;2023-03-12T08:31:13;11.15;;;5.97;;
20970;SDS011;10644;48.834;10.088;2023-03-12T08:33:39;11.40;;;6.80;;
20970;SDS011;10644;48.834;10.088;2023-03-12T08:36:24;12.63;;;7.00;;
20970;SDS011;10644;48.834;10.088;2023-03-12T08:41:26;15.95;;;8.90;;
20970;SDS011;10644;48.834;10.088;2023-03-12T08:43:53;15.48;;;8.05;;
20970;SDS011;10644;48.834;10.088;2023-03-12T08:46:21;9.23;;;7.03;;
20970;SDS011;10644;48.834;10.088;2023-03-12T08:48:48;13.60;;;7.70;;
20970;SDS011;10644;48.834;10.088;2023-03-12T08:51:15;10.35;;;6.82;;
20970;SDS011;10644;48.834;10.088;2023-03-12T08:56:18;11.02;;;7.00;;
20970;SDS011;10644;48.834;10.088;2023-03-12T09:01:29;14.10;;;7.55;;
20970;SDS011;10644;48.834;10.088;2023-03-12T09:04:04;13.35;;;8.02;;
20970;SDS011;10644;48.834;10.088;2023-03-12T09:06:30;23.38;;;9.55;;
20970;SDS011;10644;48.834;10.088;2023-03-12T09:08:57;16.60;;;8.80;;
20970;SDS011;10644;48.834;10.088;2023-03-12T09:11:28;16.65;;;9.65;;
20970;SDS011;10644;48.834;10.088;2023-03-12T09:14:13;15.13;;;8.50;;
20970;SDS011;10644;48.834;10.088;2023-03-12T09:16:48;11.93;;;7.53;;
20970;SDS011;10644;48.834;10.088;2023-03-12T09:21:45;16.17;;;9.30;;
20970;SDS011;10644;48.834;10.088;2023-03-12T09:24:28;18.65;;;9.82;;
20970;SDS011;10644;48.834;10.088;2023-03-12T09:26:57;17.38;;;8.57;;
20970;SDS011;10644;48.834;10.088;2023-03-12T09:29:22;21.17;;;10.68;;
20970;SDS011;10644;48.834;10.088;2023-03-12T09:31:48;19.58;;;10.18;;
20970;SDS011;10644;48.834;10.088;2023-03-12T09:34:15;18.98;;;10.32;;
20970;SDS011;10644;48.834;10.088;2023-03-12T09:36:41;26.17;;;15.10;;
20970;SDS011;10644;48.834;10.088;2023-03-12T09:39:09;20.55;;;11.25;;
20970;SDS011;10644;48.834;10.088;2023-03-12T09:41:36;29.30;;;15.15;;
20970;SDS011;10644;48.834;10.088;2023-03-12T09:47:12;19.38;;;10.32;;
20970;SDS011;10644;48.834;10.088;2023-03-12T09:50:16;26.00;;;11.32;;
20970;SDS011;10644;48.834;10.088;2023-03-12T09:53:10;24.95;;;12.48;;
20970;SDS011;10644;48.834;10.088;2023-03-12T09:55:43;26.42;;;13.27;;
20970;SDS011;10644;48.834;10.088;2023-03-12T10:06:17;24.65;;;12.02;;
20970;SDS011;10644;48.834;10.088;2023-03-12T10:11:33;23.90;;;12.90;;
20970;SDS011;10644;48.834;10.088;2023-03-12T10:14:13;21.67;;;12.00;;
20970;SDS011;10644;48.834;10.088;2023-03-12T10:19:29;23.75;;;13.52;;
20970;SDS011;10644;48.834;10.088;2023-03-12T10:30:56;39.85;;;24.50;;
20970;SDS011;10644;48.834;10.088;2023-03-12T10:33:49;24.30;;;13.55;;
20970;SDS011;10644;48.834;10.088;2023-03-12T10:36:21;30.02;;;15.65;;
20970;SDS011;10644;48.834;10.088;2023-03-12T10:39:01;23.83;;;13.70;;
20970;SDS011;10644;48.834;10.088;2023-03-12T10:41:35;27.33;;;13.40;;
20970;SDS011;10644;48.834;10.088;2023-03-12T10:52:09;24.98;;;14.18;;
20970;SDS011;10644;48.834;10.088;2023-03-12T10:54:58;15.50;;;8.90;;
20970;SDS011;10644;48.834;10.088;2023-03-12T10:57:41;17.80;;;10.00;;
20970;SDS011;10644;48.834;10.088;2023-03-12T11:00:12;14.20;;;8.60;;
20970;SDS011;10644;48.834;10.088;2023-03-12T11:02:54;15.00;;;7.90;;
20970;SDS011;10644;48.834;10.088;2023-03-12T11:05:21;14.00;;;8.73;;
20970;SDS011;10644;48.834;10.088;2023-03-12T11:07:56;14.25;;;8.50;;
20970;SDS011;10644;48.834;10.088;2023-03-12T11:18:55;34.05;;;20.05;;
20970;SDS011;10644;48.834;10.088;2023-03-12T11:21:24;18.08;;;12.00;;
20970;SDS011;10644;48.834;10.088;2023-03-12T11:26:28;10.88;;;7.75;;
20970;SDS011;10644;48.834;10.088;2023-03-12T11:29:16;10.52;;;6.53;;
20970;SDS011;10644;48.834;10.088;2023-03-12T11:34:51;12.25;;;8.18;;
20970;SDS011;10644;48.834;10.088;2023-03-12T11:37:24;10.77;;;7.25;;
20970;SDS011;10644;48.834;10.088;2023-03-12T12:01:34;11.90;;;8.07;;
20970;SDS011;10644;48.834;10.088;2023-03-12T12:15:13;9.97;;;7.40;;
20970;SDS011;10644;48.834;10.088;2023-03-12T12:17:55;9.07;;;7.43;;
20970;SDS011;10644;48.834;10.088;2023-03-12T12:35:42;8.95;;;7.13;;
20970;SDS011;10644;48.834;10.088;2023-03-12T12:48:54;8.98;;;6.05;;
20970;SDS011;10644;48.834;10.088;2023-03-12T12:51:29;11.70;;;5.95;;
20970;SDS011;10644;48.834;10.088;2023-03-12T12:54:05;7.00;;;5.63;;
20970;SDS011;10644;48.834;10.088;2023-03-12T13:02:58;14.03;;;5.07;;
20970;SDS011;10644;48.834;10.088;2023-03-12T13:26:48;6.37;;;4.13;;
20970;SDS011;10644;48.834;10.088;2023-03-12T13:41:37;4.40;;;2.70;;
20970;SDS011;10644;48.834;10.088;2023-03-12T13:44:51;6.43;;;3.53;;
20970;SDS011;10644;48.834;10.088;2023-03-12T14:00:42;5.03;;;2.80;;
20970;SDS011;10644;48.834;10.088;2023-03-12T14:08:48;6.73;;;2.27;;
20970;SDS011;10644;48.834;10.088;2023-03-12T14:17:33;5.97;;;2.67;;
20970;SDS011;10644;48.834;10.088;2023-03-12T14:23:01;6.10;;;2.00;;
20970;SDS011;10644;48.834;10.088;2023-03-12T14:25:34;7.93;;;2.43;;
20970;SDS011;10644;48.834;10.088;2023-03-12T14:33:24;5.17;;;2.33;;
20970;SDS011;10644;48.834;10.088;2023-03-12T14:35:56;9.30;;;2.50;;
20970;SDS011;10644;48.834;10.088;2023-03-12T14:38:52;3.20;;;2.13;;
20970;SDS011;10644;48.834;10.088;2023-03-12T14:41:44;5.07;;;2.17;;
20970;SDS011;10644;48.834;10.088;2023-03-12T14:44:26;4.27;;;2.37;;
20970;SDS011;10644;48.834;10.088;2023-03-12T14:47:15;3.33;;;2.00;;
20970;SDS011;10644;48.834;10.088;2023-03-12T14:49:56;6.60;;;2.33;;
20970;SDS011;10644;48.834;10.088;2023-03-12T14:52:27;6.80;;;2.60;;
20970;SDS011;10644;48.834;10.088;2023-03-12T14:54:58;5.53;;;2.87;;
20970;SDS011;10644;48.834;10.088;2023-03-12T14:57:26;9.67;;;2.67;;
20970;SDS011;10644;48.834;10.088;2023-03-12T14:59:54;11.37;;;2.90;;
20970;SDS011;10644;48.834;10.088;2023-03-12T15:02:29;29.73;;;12.80;;
20970;SDS011;10644;48.834;10.088;2023-03-12T15:04:56;8.87;;;3.00;;
20970;SDS011;10644;48.834;10.088;2023-03-12T15:07:29;22.90;;;4.87;;
20970;SDS011;10644;48.834;10.088;2023-03-12T15:12:50;6.93;;;2.67;;
20970;SDS011;10644;48.834;10.088;2023-03-12T15:18:16;6.70;;;2.70;;
20970;SDS011;10644;48.834;10.088;2023-03-12T15:20:51;7.93;;;4.23;;
20970;SDS011;10644;48.834;10.088;2023-03-12T15:23:20;8.43;;;3.43;;
20970;SDS011;10644;48.834;10.088;2023-03-12T15:28:53;6.77;;;2.60;;
20970;SDS011;10644;48.834;10.088;2023-03-12T15:31:24;8.33;;;2.97;;
20970;SDS011;10644;48.834;10.088;2023-03-12T15:34:05;4.27;;;2.40;;
20970;SDS011;10644;48.834;10.088;2023-03-12T15:39:13;7.00;;;2.53;;
20970;SDS011;10644;48.834;10.088;2023-03-12T15:44:50;5.83;;;2.53;;
20970;SDS011;10644;48.834;10.088;2023-03-12T15:53:25;8.23;;;3.07;;
20970;SDS011;10644;48.834;10.088;2023-03-12T16:01:52;9.47;;;3.27;;
20970;SDS011;10644;48.834;10.088;2023-03-12T16:04:36;7.57;;;3.30;;
20970;SDS011;10644;48.834;10.088;2023-03-12T16:07:01;5.70;;;3.10;;
20970;SDS011;10644;48.834;10.088;2023-03-12T16:12:16;12.20;;;4.00;;
20970;SDS011;10644;48.834;10.088;2023-03-12T16:14:47;8.40;;;3.20;;
20970;SDS011;10644;48.834;10.088;2023-03-12T16:20:01;11.00;;;4.60;;
20970;SDS011;10644;48.834;10.088;2023-03-12T16:22:32;6.27;;;3.60;;
20970;SDS011;10644;48.834;10.088;2023-03-12T16:31:28;15.20;;;4.37;;
20970;SDS011;10644;48.834;10.088;2023-03-12T16:39:52;11.03;;;4.87;;
20970;SDS011;10644;48.834;10.088;2023-03-12T16:42:32;13.80;;;5.60;;
20970;SDS011;10644;48.834;10.088;2023-03-12T16:45:03;10.53;;;4.57;;
20970;SDS011;10644;48.834;10.088;2023-03-12T16:50:24;8.37;;;4.03;;
20970;SDS011;10644;48.834;10.088;2023-03-12T16:52:58;5.37;;;3.20;;
20970;SDS011;10644;48.834;10.088;2023-03-12T17:09:29;9.20;;;3.47;;
20970;SDS011;10644;48.834;10.088;2023-03-12T17:11:56;31.53;;;10.57;;
20970;SDS011;10644;48.834;10.088;2023-03-12T17:14:31;9.17;;;3.53;;
20970;SDS011;10644;48.834;10.088;2023-03-12T17:17:16;9.37;;;4.00;;
20970;SDS011;10644;48.834;10.088;2023-03-12T17:19:41;10.17;;;4.23;;
20970;SDS011;10644;48.834;10.088;2023-03-12T17:22:06;12.80;;;4.03;;
20970;SDS011;10644;48.834;10.088;2023-03-12T17:24:33;5.10;;;2.73;;
20970;SDS011;10644;48.834;10.088;2023-03-12T17:26:58;19.33;;;4.40;;
20970;SDS011;10644;48.834;10.088;2023-03-12T17:29:30;12.30;;;4.10;;
20970;SDS011;10644;48.834;10.088;2023-03-12T17:31:57;16.93;;;4.80;;
20970;SDS011;10644;48.834;10.088;2023-03-12T17:34:29;12.13;;;3.95;;
20970;SDS011;10644;48.834;10.088;2023-03-12T17:36:56;5.40;;;3.77;;
20970;SDS011;10644;48.834;10.088;2023-03-12T17:39:33;23.17;;;5.80;;
20970;SDS011;10644;48.834;10.088;2023-03-12T17:42:08;13.63;;;4.10;;
20970;SDS011;10644;48.834;10.088;2023-03-12T17:44:38;8.60;;;4.00;;
20970;SDS011;10644;48.834;10.088;2023-03-12T17:52:25;13.43;;;5.00;;
20970;SDS011;10644;48.834;10.088;2023-03-12T17:55:01;5.47;;;4.20;;
20970;SDS011;10644;48.834;10.088;2023-03-12T18:00:04;12.90;;;4.00;;
20970;SDS011;10644;48.834;10.088;2023-03-12T18:02:35;7.50;;;4.20;;
20970;SDS011;10644;48.834;10.088;2023-03-12T18:05:03;17.00;;;6.20;;
20970;SDS011;10644;48.834;10.088;2023-03-12T18:07:28;36.63;;;14.27;;
20970;SDS011;10644;48.834;10.088;2023-03-12T18:09:54;25.57;;;10.70;;
20970;SDS011;10644;48.834;10.088;2023-03-12T18:12:19;38.87;;;12.70;;
20970;SDS011;10644;48.834;10.088;2023-03-12T18:14:46;34.40;;;15.00;;
20970;SDS011;10644;48.834;10.088;2023-03-12T18:17:18;31.10;;;15.60;;
20970;SDS011;10644;48.834;10.088;2023-03-12T18:19:45;15.17;;;6.70;;
20970;SDS011;10644;48.834;10.088;2023-03-12T18:22:12;21.33;;;8.73;;
20970;SDS011;10644;48.834;10.088;2023-03-12T18:30:37;31.20;;;15.40;;
20970;SDS011;10644;48.834;10.088;2023-03-12T18:33:03;23.80;;;14.23;;
20970;SDS011;10644;48.834;10.088;2023-03-12T18:35:29;66.57;;;41.10;;
20970;SDS011;10644;48.834;10.088;2023-03-12T18:40:34;22.17;;;8.73;;
20970;SDS011;10644;48.834;10.088;2023-03-12T18:43:08;29.83;;;10.77;;
20970;SDS011;10644;48.834;10.088;2023-03-12T18:48:23;17.93;;;10.83;;
20970;SDS011;10644;48.834;10.088;2023-03-12T18:56:45;19.83;;;10.40;;
20970;SDS011;10644;48.834;10.088;2023-03-12T18:59:17;27.13;;;11.13;;
20970;SDS011;10644;48.834;10.088;2023-03-12T19:04:26;12.03;;;4.70;;
20970;SDS011;10644;48.834;10.088;2023-03-12T19:07:06;21.73;;;4.33;;
20970;SDS011;10644;48.834;10.088;2023-03-12T19:09:33;16.00;;;4.10;;
20970;SDS011;10644;48.834;10.088;2023-03-12T19:15:01;16.73;;;4.63;;
20970;SDS011;10644;48.834;10.088;2023-03-12T19:17:36;23.13;;;7.10;;
20970;SDS011;10644;48.834;10.088;2023-03-12T19:20:09;10.50;;;5.23;;
20970;SDS011;10644;48.834;10.088;2023-03-12T19:22:36;23.57;;;6.20;;
20970;SDS011;10644;48.834;10.088;2023-03-12T19:25:04;15.47;;;7.17;;
20970;SDS011;10644;48.834;10.088;2023-03-12T19:27:33;16.77;;;5.60;;
20970;SDS011;10644;48.834;10.088;2023-03-12T19:32:43;31.77;;;16.03;;
20970;SDS011;10644;48.834;10.088;2023-03-12T19:35:11;17.53;;;9.90;;
20970;SDS011;10644;48.834;10.088;2023-03-12T19:37:42;21.07;;;9.30;;
20970;SDS011;10644;48.834;10.088;2023-03-12T19:45:27;32.80;;;11.43;;
20970;SDS011;10644;48.834;10.088;2023-03-12T19:48:03;35.27;;;14.50;;
20970;SDS011;10644;48.834;10.088;2023-03-12T19:55:58;27.17;;;13.18;;
20970;SDS011;10644;48.834;10.088;2023-03-12T19:58:41;30.13;;;13.83;;
20970;SDS011;10644;48.834;10.088;2023-03-12T20:01:13;35.63;;;17.27;;
20970;SDS011;10644;48.834;10.088;2023-03-12T20:03:38;44.43;;;19.37;;
20970;SDS011;10644;48.834;10.088;2023-03-12T20:06:18;34.80;;;17.03;;
20970;SDS011;10644;48.834;10.088;2023-03-12T20:15:00;33.63;;;15.17;;
20970;SDS011;10644;48.834;10.088;2023-03-12T20:20:17;19.63;;;8.10;;
20970;SDS011;10644;48.834;10.088;2023-03-12T20:29:14;28.63;;;13.60;;
20970;SDS011;10644;48.834;10.088;2023-03-12T20:31:42;56.17;;;27.27;;
20970;SDS011;10644;48.834;10.088;2023-03-12T20:43:00;14.50;;;3.40;;
20970;SDS011;10644;48.834;10.088;2023-03-12T20:48:04;35.28;;;5.38;;
20970;SDS011;10644;48.834;10.088;2023-03-12T20:50:31;10.70;;;2.73;;
20970;SDS011;10644;48.834;10.088;2023-03-12T20:53:04;19.37;;;3.20;;
20970;SDS011;10644;48.834;10.088;2023-03-12T20:55:32;10.90;;;3.30;;
20970;SDS011;10644;48.834;10.088;2023-03-12T21:00:55;17.63;;;3.10;;
20970;SDS011;10644;48.834;10.088;2023-03-12T21:03:21;12.17;;;3.30;;
20970;SDS011;10644;48.834;10.088;2023-03-12T21:05:56;13.63;;;3.50;;
20970;SDS011;10644;48.834;10.088;2023-03-12T21:08:38;16.80;;;2.80;;
20970;SDS011;10644;48.834;10.088;2023-03-12T21:11:04;12.97;;;3.23;;
20970;SDS011;10644;48.834;10.088;2023-03-12T21:13:31;12.32;;;2.97;;
20970;SDS011;10644;48.834;10.088;2023-03-12T21:16:08;20.97;;;3.80;;
20970;SDS011;10644;48.834;10.088;2023-03-12T21:21:43;30.50;;;5.20;;
20970;SDS011;10644;48.834;10.088;2023-03-12T21:30:35;21.03;;;4.10;;
20970;SDS011;10644;48.834;10.088;2023-03-12T21:33:11;12.87;;;2.60;;
20970;SDS011;10644;48.834;10.088;2023-03-12T21:35:47;18.13;;;3.33;;
20970;SDS011;10644;48.834;10.088;2023-03-12T21:44:34;8.00;;;3.00;;
20970;SDS011;10644;48.834;10.088;2023-03-12T21:47:15;24.27;;;3.97;;
20970;SDS011;10644;48.834;10.088;2023-03-12T21:52:42;13.00;;;3.63;;
20970;SDS011;10644;48.834;10.088;2023-03-12T22:01:18;16.40;;;3.87;;
20970;SDS011;10644;48.834;10.088;2023-03-12T22:03:57;5.30;;;2.57;;
20970;SDS011;10644;48.834;10.088;2023-03-12T22:15:01;11.03;;;2.70;;